sensor_id;sensor_type;location;lat;lon;timestamp;P1;durP1;ratioP1;P2;durP2;ratioP2
6479;SDS011;71753;48.772;9.148;2024-03-02T00:01:14;8.03;;;5.20;;
6479;SDS011;71753;48.772;9.148;2024-03-02T00:03:43;7.93;;;5.10;;
6479;SDS011;71753;48.772;9.148;2024-03-02T00:06:10;8.33;;;5.53;;
6479;SDS011;71753;48.772;9.148;2024-03-02T00:08:37;11.57;;;5.47;;
6479;SDS011;71753;48.772;9.148;2024-03-02T00:11:04;9.90;;;4.90;;
6479;SDS011;71753;48.772;9.148;2024-03-02T00:13:30;8.83;;;5.43;;
6479;SDS011;71753;48.772;9.148;2024-03-02T00:15:58;8.63;;;5.10;;
6479;SDS011;71753;48.772;9.148;2024-03-02T00:18:26;8.30;;;5.00;;
6479;SDS011;71753;48.772;9.148;2024-03-02T00:20:55;7.30;;;4.60;;
6479;SDS011;71753;48.772;9.148;2024-03-02T00:23:23;10.70;;;5.53;;
6479;SDS011;71753;48.772;9.148;2024-03-02T00:25:51;7.27;;;5.00;;
6479;SDS011;71753;48.772;9.148;2024-03-02T00:28:20;11.53;;;5.30;;
6479;SDS011;71753;48.772;9.148;2024-03-02T00:30:56;7.70;;;4.80;;
6479;SDS011;71753;48.772;9.148;2024-03-02T00:33:26;6.57;;;4.43;;
6479;SDS011;71753;48.772;9.148;2024-03-02T00:35:56;8.13;;;4.90;;
6479;SDS011;71753;48.772;9.148;2024-03-02T00:38:25;8.63;;;5.40;;
6479;SDS011;71753;48.772;9.148;2024-03-02T00:40:52;8.60;;;5.00;;
6479;SDS011;71753;48.772;9.148;2024-03-02T00:43:33;8.60;;;4.90;;
6479;SDS011;71753;48.772;9.148;2024-03-02T00:46:07;10.57;;;5.07;;
6479;SDS011;71753;48.772;9.148;2024-03-02T00:48:34;10.00;;;5.23;;
6479;SDS011;71753;48.772;9.148;2024-03-02T00:51:03;9.03;;;5.13;;
6479;SDS011;71753;48.772;9.148;2024-03-02T00:53:30;8.23;;;5.13;;
6479;SDS011;71753;48.772;9.148;2024-03-02T00:55:58;8.23;;;5.10;;
6479;SDS011;71753;48.772;9.148;2024-03-02T00:58:25;8.00;;;4.93;;
6479;SDS011;71753;48.772;9.148;2024-03-02T01:00:51;8.47;;;4.97;;
6479;SDS011;71753;48.772;9.148;2024-03-02T01:03:18;8.20;;;5.07;;
6479;SDS011;71753;48.772;9.148;2024-03-02T01:05:45;9.27;;;5.07;;
6479;SDS011;71753;48.772;9.148;2024-03-02T01:08:13;8.90;;;5.13;;
6479;SDS011;71753;48.772;9.148;2024-03-02T01:10:39;7.57;;;5.10;;
6479;SDS011;71753;48.772;9.148;2024-03-02T01:13:06;9.50;;;5.07;;
6479;SDS011;71753;48.772;9.148;2024-03-02T01:15:33;7.23;;;4.50;;
6479;SDS011;71753;48.772;9.148;2024-03-02T01:18:00;9.37;;;4.87;;
6479;SDS011;71753;48.772;9.148;2024-03-02T01:20:26;11.53;;;5.27;;
6479;SDS011;71753;48.772;9.148;2024-03-02T01:22:53;8.53;;;5.07;;
6479;SDS011;71753;48.772;9.148;2024-03-02T01:25:21;8.20;;;5.00;;
6479;SDS011;71753;48.772;9.148;2024-03-02T01:27:48;8.63;;;5.07;;
6479;SDS011;71753;48.772;9.148;2024-03-02T01:30:15;9.73;;;4.97;;
6479;SDS011;71753;48.772;9.148;2024-03-02T01:32:42;8.70;;;5.30;;
6479;SDS011;71753;48.772;9.148;2024-03-02T01:35:09;8.10;;;5.13;;
6479;SDS011;71753;48.772;9.148;2024-03-02T01:37:35;7.37;;;4.90;;
6479;SDS011;71753;48.772;9.148;2024-03-02T01:40:02;9.73;;;5.23;;
6479;SDS011;71753;48.772;9.148;2024-03-02T01:42:35;7.53;;;4.73;;
6479;SDS011;71753;48.772;9.148;2024-03-02T01:45:03;8.70;;;5.00;;
6479;SDS011;71753;48.772;9.148;2024-03-02T01:47:30;8.30;;;4.57;;
6479;SDS011;71753;48.772;9.148;2024-03-02T01:49:57;8.80;;;5.00;;
6479;SDS011;71753;48.772;9.148;2024-03-02T01:52:24;7.63;;;4.50;;
6479;SDS011;71753;48.772;9.148;2024-03-02T01:54:51;8.60;;;4.97;;
6479;SDS011;71753;48.772;9.148;2024-03-02T01:57:18;8.10;;;4.80;;
6479;SDS011;71753;48.772;9.148;2024-03-02T01:59:46;8.43;;;4.70;;
6479;SDS011;71753;48.772;9.148;2024-03-02T02:02:13;8.77;;;4.97;;
6479;SDS011;71753;48.772;9.148;2024-03-02T02:04:40;9.37;;;4.93;;
6479;SDS011;71753;48.772;9.148;2024-03-02T02:07:07;8.67;;;4.50;;
6479;SDS011;71753;48.772;9.148;2024-03-02T02:09:33;7.80;;;4.83;;
6479;SDS011;71753;48.772;9.148;2024-03-02T02:12:00;9.33;;;4.83;;
6479;SDS011;71753;48.772;9.148;2024-03-02T02:14:27;10.83;;;5.53;;
6479;SDS011;71753;48.772;9.148;2024-03-02T02:16:56;7.97;;;4.97;;
6479;SDS011;71753;48.772;9.148;2024-03-02T02:19:22;9.73;;;5.30;;
6479;SDS011;71753;48.772;9.148;2024-03-02T02:21:50;8.37;;;5.40;;
6479;SDS011;71753;48.772;9.148;2024-03-02T02:24:17;8.60;;;5.30;;
6479;SDS011;71753;48.772;9.148;2024-03-02T02:26:43;8.93;;;4.97;;
6479;SDS011;71753;48.772;9.148;2024-03-02T02:29:10;9.93;;;5.17;;
6479;SDS011;71753;48.772;9.148;2024-03-02T02:31:37;9.20;;;5.60;;
6479;SDS011;71753;48.772;9.148;2024-03-02T02:34:04;10.33;;;5.80;;
6479;SDS011;71753;48.772;9.148;2024-03-02T02:36:31;10.60;;;5.77;;
6479;SDS011;71753;48.772;9.148;2024-03-02T02:38:59;9.50;;;5.90;;
6479;SDS011;71753;48.772;9.148;2024-03-02T02:41:28;11.43;;;5.93;;
6479;SDS011;71753;48.772;9.148;2024-03-02T02:43:55;10.90;;;6.23;;
6479;SDS011;71753;48.772;9.148;2024-03-02T02:46:21;9.73;;;5.23;;
6479;SDS011;71753;48.772;9.148;2024-03-02T02:48:48;8.83;;;5.77;;
6479;SDS011;71753;48.772;9.148;2024-03-02T02:51:14;11.57;;;5.87;;
6479;SDS011;71753;48.772;9.148;2024-03-02T02:53:41;9.67;;;5.43;;
6479;SDS011;71753;48.772;9.148;2024-03-02T02:56:09;12.23;;;5.97;;
6479;SDS011;71753;48.772;9.148;2024-03-02T02:58:36;12.53;;;6.00;;
6479;SDS011;71753;48.772;9.148;2024-03-02T03:01:03;9.20;;;5.20;;
6479;SDS011;71753;48.772;9.148;2024-03-02T03:03:30;12.53;;;5.60;;
6479;SDS011;71753;48.772;9.148;2024-03-02T03:05:56;15.77;;;5.87;;
6479;SDS011;71753;48.772;9.148;2024-03-02T03:08:23;11.20;;;5.43;;
6479;SDS011;71753;48.772;9.148;2024-03-02T03:10:49;10.33;;;5.37;;
6479;SDS011;71753;48.772;9.148;2024-03-02T03:13:18;11.20;;;5.93;;
6479;SDS011;71753;48.772;9.148;2024-03-02T03:15:44;13.00;;;5.77;;
6479;SDS011;71753;48.772;9.148;2024-03-02T03:18:11;10.70;;;5.83;;
6479;SDS011;71753;48.772;9.148;2024-03-02T03:20:38;10.33;;;5.87;;
6479;SDS011;71753;48.772;9.148;2024-03-02T03:23:04;13.73;;;6.60;;
6479;SDS011;71753;48.772;9.148;2024-03-02T03:25:31;11.17;;;6.03;;
6479;SDS011;71753;48.772;9.148;2024-03-02T03:27:57;11.37;;;5.77;;
6479;SDS011;71753;48.772;9.148;2024-03-02T03:30:25;11.53;;;6.30;;
6479;SDS011;71753;48.772;9.148;2024-03-02T03:32:52;13.37;;;6.30;;
6479;SDS011;71753;48.772;9.148;2024-03-02T03:35:19;10.90;;;5.80;;
6479;SDS011;71753;48.772;9.148;2024-03-02T03:37:45;10.97;;;5.30;;
6479;SDS011;71753;48.772;9.148;2024-03-02T03:40:12;10.63;;;5.60;;
6479;SDS011;71753;48.772;9.148;2024-03-02T03:42:39;11.23;;;5.93;;
6479;SDS011;71753;48.772;9.148;2024-03-02T03:45:06;11.33;;;6.03;;
6479;SDS011;71753;48.772;9.148;2024-03-02T03:47:34;11.87;;;6.33;;
6479;SDS011;71753;48.772;9.148;2024-03-02T03:50:01;10.20;;;5.67;;
6479;SDS011;71753;48.772;9.148;2024-03-02T03:52:31;11.30;;;6.50;;
6479;SDS011;71753;48.772;9.148;2024-03-02T03:54:58;10.53;;;5.67;;
6479;SDS011;71753;48.772;9.148;2024-03-02T03:57:25;9.47;;;5.37;;
6479;SDS011;71753;48.772;9.148;2024-03-02T03:59:52;11.70;;;5.50;;
6479;SDS011;71753;48.772;9.148;2024-03-02T04:02:18;8.47;;;5.20;;
6479;SDS011;71753;48.772;9.148;2024-03-02T04:04:47;11.60;;;6.00;;
6479;SDS011;71753;48.772;9.148;2024-03-02T04:07:13;11.17;;;5.63;;
6479;SDS011;71753;48.772;9.148;2024-03-02T04:09:40;10.03;;;5.47;;
6479;SDS011;71753;48.772;9.148;2024-03-02T04:12:07;10.53;;;5.90;;
6479;SDS011;71753;48.772;9.148;2024-03-02T04:14:34;9.87;;;5.30;;
6479;SDS011;71753;48.772;9.148;2024-03-02T04:17:00;12.37;;;5.30;;
6479;SDS011;71753;48.772;9.148;2024-03-02T04:19:27;12.90;;;6.13;;
6479;SDS011;71753;48.772;9.148;2024-03-02T04:21:55;11.80;;;5.50;;
6479;SDS011;71753;48.772;9.148;2024-03-02T04:24:21;10.17;;;5.47;;
6479;SDS011;71753;48.772;9.148;2024-03-02T04:26:48;9.27;;;5.07;;
6479;SDS011;71753;48.772;9.148;2024-03-02T04:29:15;8.77;;;4.90;;
6479;SDS011;71753;48.772;9.148;2024-03-02T04:31:41;8.87;;;5.33;;
6479;SDS011;71753;48.772;9.148;2024-03-02T04:34:08;8.63;;;4.97;;
6479;SDS011;71753;48.772;9.148;2024-03-02T04:36:35;9.90;;;5.10;;
6479;SDS011;71753;48.772;9.148;2024-03-02T04:39:03;9.93;;;5.37;;
6479;SDS011;71753;48.772;9.148;2024-03-02T04:41:34;7.87;;;5.30;;
6479;SDS011;71753;48.772;9.148;2024-03-02T04:44:01;11.90;;;5.87;;
6479;SDS011;71753;48.772;9.148;2024-03-02T04:46:28;12.23;;;5.80;;
6479;SDS011;71753;48.772;9.148;2024-03-02T04:48:54;9.20;;;5.30;;
6479;SDS011;71753;48.772;9.148;2024-03-02T04:51:22;11.00;;;5.53;;
6479;SDS011;71753;48.772;9.148;2024-03-02T04:53:48;12.27;;;5.70;;
6479;SDS011;71753;48.772;9.148;2024-03-02T04:56:16;9.47;;;5.13;;
6479;SDS011;71753;48.772;9.148;2024-03-02T04:59:05;10.23;;;5.53;;
6479;SDS011;71753;48.772;9.148;2024-03-02T05:01:31;11.43;;;5.73;;
6479;SDS011;71753;48.772;9.148;2024-03-02T05:03:58;11.87;;;5.50;;
6479;SDS011;71753;48.772;9.148;2024-03-02T05:06:25;9.10;;;5.23;;
6479;SDS011;71753;48.772;9.148;2024-03-02T05:08:51;8.33;;;4.57;;
6479;SDS011;71753;48.772;9.148;2024-03-02T05:11:19;9.37;;;5.23;;
6479;SDS011;71753;48.772;9.148;2024-03-02T05:14:13;8.53;;;5.00;;
6479;SDS011;71753;48.772;9.148;2024-03-02T05:16:39;12.90;;;5.57;;
6479;SDS011;71753;48.772;9.148;2024-03-02T05:19:06;11.13;;;5.50;;
6479;SDS011;71753;48.772;9.148;2024-03-02T05:21:33;9.57;;;5.50;;
6479;SDS011;71753;48.772;9.148;2024-03-02T05:24:00;10.33;;;6.10;;
6479;SDS011;71753;48.772;9.148;2024-03-02T05:26:28;10.67;;;5.67;;
6479;SDS011;71753;48.772;9.148;2024-03-02T05:28:55;12.07;;;5.73;;
6479;SDS011;71753;48.772;9.148;2024-03-02T05:31:22;10.60;;;6.20;;
6479;SDS011;71753;48.772;9.148;2024-03-02T05:33:48;9.93;;;5.50;;
6479;SDS011;71753;48.772;9.148;2024-03-02T05:36:15;10.50;;;5.93;;
6479;SDS011;71753;48.772;9.148;2024-03-02T05:38:41;10.73;;;6.10;;
6479;SDS011;71753;48.772;9.148;2024-03-02T05:41:08;9.80;;;5.43;;
6479;SDS011;71753;48.772;9.148;2024-03-02T05:43:36;11.00;;;5.70;;
6479;SDS011;71753;48.772;9.148;2024-03-02T05:46:03;10.73;;;5.67;;
6479;SDS011;71753;48.772;9.148;2024-03-02T05:48:29;11.83;;;5.97;;
6479;SDS011;71753;48.772;9.148;2024-03-02T05:50:56;12.50;;;5.30;;
6479;SDS011;71753;48.772;9.148;2024-03-02T05:53:23;11.53;;;5.60;;
6479;SDS011;71753;48.772;9.148;2024-03-02T05:55:49;11.17;;;6.20;;
6479;SDS011;71753;48.772;9.148;2024-03-02T05:58:18;10.43;;;5.50;;
6479;SDS011;71753;48.772;9.148;2024-03-02T06:00:57;10.77;;;6.20;;
6479;SDS011;71753;48.772;9.148;2024-03-02T06:03:24;10.80;;;6.20;;
6479;SDS011;71753;48.772;9.148;2024-03-02T06:05:51;12.53;;;6.20;;
6479;SDS011;71753;48.772;9.148;2024-03-02T06:08:17;10.27;;;5.40;;
6479;SDS011;71753;48.772;9.148;2024-03-02T06:10:44;9.57;;;5.27;;
6479;SDS011;71753;48.772;9.148;2024-03-02T06:13:11;8.77;;;5.20;;
6479;SDS011;71753;48.772;9.148;2024-03-02T06:15:37;10.50;;;5.27;;
6479;SDS011;71753;48.772;9.148;2024-03-02T06:18:06;10.23;;;5.13;;
6479;SDS011;71753;48.772;9.148;2024-03-02T06:20:33;8.80;;;5.23;;
6479;SDS011;71753;48.772;9.148;2024-03-02T06:23:00;12.17;;;5.60;;
6479;SDS011;71753;48.772;9.148;2024-03-02T06:25:26;8.70;;;4.77;;
6479;SDS011;71753;48.772;9.148;2024-03-02T06:27:53;9.47;;;5.30;;
6479;SDS011;71753;48.772;9.148;2024-03-02T06:30:20;7.97;;;5.00;;
6479;SDS011;71753;48.772;9.148;2024-03-02T06:32:46;9.30;;;4.60;;
6479;SDS011;71753;48.772;9.148;2024-03-02T06:35:14;9.20;;;5.60;;
6479;SDS011;71753;48.772;9.148;2024-03-02T06:37:41;10.30;;;5.17;;
6479;SDS011;71753;48.772;9.148;2024-03-02T06:40:08;11.73;;;5.57;;
6479;SDS011;71753;48.772;9.148;2024-03-02T06:42:35;10.90;;;5.07;;
6479;SDS011;71753;48.772;9.148;2024-03-02T06:45:02;9.73;;;5.33;;
6479;SDS011;71753;48.772;9.148;2024-03-02T06:47:29;9.10;;;5.20;;
6479;SDS011;71753;48.772;9.148;2024-03-02T06:49:55;9.83;;;5.43;;
6479;SDS011;71753;48.772;9.148;2024-03-02T06:52:24;8.70;;;5.10;;
6479;SDS011;71753;48.772;9.148;2024-03-02T06:54:51;9.50;;;5.13;;
6479;SDS011;71753;48.772;9.148;2024-03-02T06:57:18;9.40;;;5.10;;
6479;SDS011;71753;48.772;9.148;2024-03-02T06:59:45;9.20;;;5.20;;
6479;SDS011;71753;48.772;9.148;2024-03-02T07:02:13;9.67;;;5.30;;
6479;SDS011;71753;48.772;9.148;2024-03-02T07:04:40;11.00;;;5.23;;
6479;SDS011;71753;48.772;9.148;2024-03-02T07:07:07;8.83;;;4.93;;
6479;SDS011;71753;48.772;9.148;2024-03-02T07:09:35;7.90;;;4.93;;
6479;SDS011;71753;48.772;9.148;2024-03-02T07:12:01;9.13;;;5.07;;
6479;SDS011;71753;48.772;9.148;2024-03-02T07:14:28;9.93;;;5.20;;
6479;SDS011;71753;48.772;9.148;2024-03-02T07:17:09;8.47;;;4.70;;
6479;SDS011;71753;48.772;9.148;2024-03-02T07:19:36;7.30;;;4.57;;
6479;SDS011;71753;48.772;9.148;2024-03-02T07:22:05;7.93;;;5.07;;
6479;SDS011;71753;48.772;9.148;2024-03-02T07:24:32;8.23;;;4.73;;
6479;SDS011;71753;48.772;9.148;2024-03-02T07:27:00;7.63;;;4.47;;
6479;SDS011;71753;48.772;9.148;2024-03-02T07:29:27;10.13;;;5.83;;
6479;SDS011;71753;48.772;9.148;2024-03-02T07:31:53;10.83;;;5.00;;
6479;SDS011;71753;48.772;9.148;2024-03-02T07:34:20;10.07;;;4.80;;
6479;SDS011;71753;48.772;9.148;2024-03-02T07:36:47;10.77;;;4.80;;
6479;SDS011;71753;48.772;9.148;2024-03-02T07:39:13;7.90;;;4.50;;
6479;SDS011;71753;48.772;9.148;2024-03-02T07:41:41;9.03;;;5.27;;
6479;SDS011;71753;48.772;9.148;2024-03-02T07:44:10;8.77;;;5.10;;
6479;SDS011;71753;48.772;9.148;2024-03-02T07:46:39;9.03;;;5.30;;
6479;SDS011;71753;48.772;9.148;2024-03-02T07:49:06;7.73;;;4.67;;
6479;SDS011;71753;48.772;9.148;2024-03-02T07:51:33;7.80;;;4.33;;
6479;SDS011;71753;48.772;9.148;2024-03-02T07:53:59;8.87;;;4.90;;
6479;SDS011;71753;48.772;9.148;2024-03-02T07:56:26;8.03;;;5.03;;
6479;SDS011;71753;48.772;9.148;2024-03-02T07:58:53;7.87;;;5.07;;
6479;SDS011;71753;48.772;9.148;2024-03-02T08:01:23;7.87;;;4.80;;
6479;SDS011;71753;48.772;9.148;2024-03-02T08:03:50;9.33;;;4.67;;
6479;SDS011;71753;48.772;9.148;2024-03-02T08:06:17;9.17;;;4.90;;
6479;SDS011;71753;48.772;9.148;2024-03-02T08:08:46;7.73;;;4.77;;
6479;SDS011;71753;48.772;9.148;2024-03-02T08:11:13;8.73;;;5.13;;
6479;SDS011;71753;48.772;9.148;2024-03-02T08:13:39;7.40;;;4.30;;
6479;SDS011;71753;48.772;9.148;2024-03-02T08:16:06;8.47;;;4.27;;
6479;SDS011;71753;48.772;9.148;2024-03-02T08:18:35;9.03;;;4.60;;
6479;SDS011;71753;48.772;9.148;2024-03-02T08:21:02;8.20;;;4.60;;
6479;SDS011;71753;48.772;9.148;2024-03-02T08:23:29;7.07;;;4.60;;
6479;SDS011;71753;48.772;9.148;2024-03-02T08:25:57;8.07;;;4.90;;
6479;SDS011;71753;48.772;9.148;2024-03-02T08:28:23;7.13;;;4.63;;
6479;SDS011;71753;48.772;9.148;2024-03-02T08:30:50;8.63;;;5.10;;
6479;SDS011;71753;48.772;9.148;2024-03-02T08:33:17;8.50;;;4.77;;
6479;SDS011;71753;48.772;9.148;2024-03-02T08:35:45;8.37;;;4.70;;
6479;SDS011;71753;48.772;9.148;2024-03-02T08:38:12;7.60;;;4.77;;
6479;SDS011;71753;48.772;9.148;2024-03-02T08:40:38;8.63;;;4.40;;
6479;SDS011;71753;48.772;9.148;2024-03-02T08:43:05;7.83;;;4.83;;
6479;SDS011;71753;48.772;9.148;2024-03-02T08:45:32;7.03;;;4.40;;
6479;SDS011;71753;48.772;9.148;2024-03-02T08:48:01;9.07;;;4.77;;
6479;SDS011;71753;48.772;9.148;2024-03-02T08:50:27;7.70;;;4.30;;
6479;SDS011;71753;48.772;9.148;2024-03-02T08:52:55;7.47;;;4.03;;
6479;SDS011;71753;48.772;9.148;2024-03-02T08:55:22;5.70;;;3.90;;
6479;SDS011;71753;48.772;9.148;2024-03-02T08:57:48;7.13;;;4.50;;
6479;SDS011;71753;48.772;9.148;2024-03-02T09:00:16;6.73;;;4.20;;
6479;SDS011;71753;48.772;9.148;2024-03-02T09:02:43;6.30;;;3.93;;
6479;SDS011;71753;48.772;9.148;2024-03-02T09:05:10;6.10;;;4.20;;
6479;SDS011;71753;48.772;9.148;2024-03-02T09:07:37;7.53;;;3.70;;
6479;SDS011;71753;48.772;9.148;2024-03-02T09:10:07;6.27;;;3.67;;
6479;SDS011;71753;48.772;9.148;2024-03-02T09:12:34;5.87;;;3.70;;
6479;SDS011;71753;48.772;9.148;2024-03-02T09:15:01;7.30;;;3.73;;
6479;SDS011;71753;48.772;9.148;2024-03-02T09:17:28;5.50;;;3.63;;
6479;SDS011;71753;48.772;9.148;2024-03-02T09:19:55;5.70;;;3.70;;
6479;SDS011;71753;48.772;9.148;2024-03-02T09:22:22;4.50;;;3.20;;
6479;SDS011;71753;48.772;9.148;2024-03-02T09:24:49;5.03;;;3.40;;
6479;SDS011;71753;48.772;9.148;2024-03-02T09:27:17;5.70;;;3.57;;
6479;SDS011;71753;48.772;9.148;2024-03-02T09:29:44;5.53;;;3.40;;
6479;SDS011;71753;48.772;9.148;2024-03-02T09:32:12;5.13;;;3.30;;
6479;SDS011;71753;48.772;9.148;2024-03-02T09:34:39;4.00;;;3.03;;
6479;SDS011;71753;48.772;9.148;2024-03-02T09:37:06;4.60;;;3.10;;
6479;SDS011;71753;48.772;9.148;2024-03-02T09:39:33;4.83;;;3.10;;
6479;SDS011;71753;48.772;9.148;2024-03-02T09:42:00;5.43;;;3.47;;
6479;SDS011;71753;48.772;9.148;2024-03-02T09:44:29;5.60;;;3.00;;
6479;SDS011;71753;48.772;9.148;2024-03-02T09:46:56;4.50;;;2.73;;
6479;SDS011;71753;48.772;9.148;2024-03-02T09:49:22;5.17;;;3.00;;
6479;SDS011;71753;48.772;9.148;2024-03-02T09:51:49;4.33;;;2.83;;
6479;SDS011;71753;48.772;9.148;2024-03-02T09:54:16;4.90;;;3.10;;
6479;SDS011;71753;48.772;9.148;2024-03-02T09:56:43;3.93;;;2.60;;
6479;SDS011;71753;48.772;9.148;2024-03-02T09:59:17;4.47;;;2.90;;
6479;SDS011;71753;48.772;9.148;2024-03-02T10:04:29;3.37;;;2.53;;
6479;SDS011;71753;48.772;9.148;2024-03-02T10:07:09;4.57;;;2.80;;
6479;SDS011;71753;48.772;9.148;2024-03-02T10:09:37;3.47;;;2.53;;
6479;SDS011;71753;48.772;9.148;2024-03-02T10:12:04;3.53;;;2.30;;
6479;SDS011;71753;48.772;9.148;2024-03-02T10:14:32;4.60;;;2.70;;
6479;SDS011;71753;48.772;9.148;2024-03-02T10:17:03;3.67;;;2.73;;
6479;SDS011;71753;48.772;9.148;2024-03-02T10:19:30;3.27;;;2.37;;
6479;SDS011;71753;48.772;9.148;2024-03-02T10:21:58;4.43;;;2.73;;
6479;SDS011;71753;48.772;9.148;2024-03-02T10:24:25;3.60;;;2.50;;
6479;SDS011;71753;48.772;9.148;2024-03-02T10:26:52;3.80;;;2.47;;
6479;SDS011;71753;48.772;9.148;2024-03-02T10:29:19;4.00;;;2.70;;
6479;SDS011;71753;48.772;9.148;2024-03-02T10:31:46;3.70;;;2.40;;
6479;SDS011;71753;48.772;9.148;2024-03-02T10:34:14;3.20;;;2.10;;
6479;SDS011;71753;48.772;9.148;2024-03-02T10:36:42;3.77;;;2.30;;
6479;SDS011;71753;48.772;9.148;2024-03-02T10:39:10;3.87;;;2.27;;
6479;SDS011;71753;48.772;9.148;2024-03-02T10:41:39;3.73;;;2.50;;
6479;SDS011;71753;48.772;9.148;2024-03-02T10:44:06;3.43;;;2.20;;
6479;SDS011;71753;48.772;9.148;2024-03-02T10:46:35;3.47;;;2.33;;
6479;SDS011;71753;48.772;9.148;2024-03-02T10:49:04;4.00;;;2.63;;
6479;SDS011;71753;48.772;9.148;2024-03-02T10:51:34;3.40;;;2.80;;
6479;SDS011;71753;48.772;9.148;2024-03-02T10:54:02;3.13;;;2.23;;
6479;SDS011;71753;48.772;9.148;2024-03-02T10:56:30;4.03;;;2.70;;
6479;SDS011;71753;48.772;9.148;2024-03-02T10:59:01;3.70;;;2.77;;
6479;SDS011;71753;48.772;9.148;2024-03-02T11:01:29;3.73;;;2.50;;
6479;SDS011;71753;48.772;9.148;2024-03-02T11:03:59;3.07;;;2.20;;
6479;SDS011;71753;48.772;9.148;2024-03-02T11:06:28;2.77;;;2.00;;
6479;SDS011;71753;48.772;9.148;2024-03-02T11:09:00;2.57;;;2.03;;
6479;SDS011;71753;48.772;9.148;2024-03-02T11:11:35;3.80;;;2.37;;
6479;SDS011;71753;48.772;9.148;2024-03-02T11:14:06;3.60;;;2.43;;
6479;SDS011;71753;48.772;9.148;2024-03-02T11:16:37;2.83;;;2.10;;
6479;SDS011;71753;48.772;9.148;2024-03-02T11:19:07;2.80;;;1.90;;
6479;SDS011;71753;48.772;9.148;2024-03-02T11:21:36;2.47;;;1.80;;
6479;SDS011;71753;48.772;9.148;2024-03-02T11:27:02;2.67;;;1.33;;
6479;SDS011;71753;48.772;9.148;2024-03-02T11:29:42;1.70;;;1.40;;
6479;SDS011;71753;48.772;9.148;2024-03-02T11:32:12;1.30;;;1.20;;
6479;SDS011;71753;48.772;9.148;2024-03-02T11:34:41;1.63;;;1.43;;
6479;SDS011;71753;48.772;9.148;2024-03-02T11:37:10;1.37;;;1.23;;
6479;SDS011;71753;48.772;9.148;2024-03-02T11:39:39;1.40;;;1.20;;
6479;SDS011;71753;48.772;9.148;2024-03-02T11:42:06;1.30;;;1.20;;
6479;SDS011;71753;48.772;9.148;2024-03-02T11:44:34;1.23;;;1.10;;
6479;SDS011;71753;48.772;9.148;2024-03-02T11:47:02;0.80;;;0.80;;
6479;SDS011;71753;48.772;9.148;2024-03-02T11:49:39;1.10;;;1.00;;
6479;SDS011;71753;48.772;9.148;2024-03-02T11:52:06;0.90;;;0.90;;
6479;SDS011;71753;48.772;9.148;2024-03-02T11:54:36;1.10;;;0.80;;
6479;SDS011;71753;48.772;9.148;2024-03-02T11:57:06;1.13;;;0.90;;
6479;SDS011;71753;48.772;9.148;2024-03-02T11:59:33;1.23;;;1.13;;
6479;SDS011;71753;48.772;9.148;2024-03-02T12:02:00;1.03;;;0.90;;
6479;SDS011;71753;48.772;9.148;2024-03-02T12:04:28;0.90;;;0.90;;
6479;SDS011;71753;48.772;9.148;2024-03-02T12:06:56;0.90;;;0.90;;
6479;SDS011;71753;48.772;9.148;2024-03-02T12:09:25;1.00;;;0.90;;
6479;SDS011;71753;48.772;9.148;2024-03-02T12:12:03;1.07;;;0.90;;
6479;SDS011;71753;48.772;9.148;2024-03-02T12:14:32;1.17;;;0.90;;
6479;SDS011;71753;48.772;9.148;2024-03-02T12:16:59;1.20;;;1.10;;
6479;SDS011;71753;48.772;9.148;2024-03-02T12:19:26;1.23;;;0.90;;
6479;SDS011;71753;48.772;9.148;2024-03-02T12:21:55;0.70;;;0.70;;
6479;SDS011;71753;48.772;9.148;2024-03-02T12:24:22;1.17;;;0.90;;
6479;SDS011;71753;48.772;9.148;2024-03-02T12:26:49;1.23;;;1.00;;
6479;SDS011;71753;48.772;9.148;2024-03-02T12:29:16;0.93;;;0.93;;
6479;SDS011;71753;48.772;9.148;2024-03-02T12:31:47;1.23;;;1.07;;
6479;SDS011;71753;48.772;9.148;2024-03-02T12:34:15;2.00;;;1.20;;
6479;SDS011;71753;48.772;9.148;2024-03-02T12:36:43;1.50;;;1.20;;
6479;SDS011;71753;48.772;9.148;2024-03-02T12:39:12;1.40;;;1.23;;
6479;SDS011;71753;48.772;9.148;2024-03-02T12:41:39;2.37;;;1.30;;
6479;SDS011;71753;48.772;9.148;2024-03-02T12:44:07;1.60;;;1.30;;
6479;SDS011;71753;48.772;9.148;2024-03-02T12:46:34;1.53;;;1.40;;
6479;SDS011;71753;48.772;9.148;2024-03-02T12:49:07;1.07;;;1.00;;
6479;SDS011;71753;48.772;9.148;2024-03-02T12:51:35;1.67;;;1.40;;
6479;SDS011;71753;48.772;9.148;2024-03-02T12:54:02;1.43;;;1.27;;
6479;SDS011;71753;48.772;9.148;2024-03-02T12:56:30;1.60;;;1.50;;
6479;SDS011;71753;48.772;9.148;2024-03-02T12:58:57;2.13;;;1.50;;
6479;SDS011;71753;48.772;9.148;2024-03-02T13:01:24;1.60;;;1.50;;
6479;SDS011;71753;48.772;9.148;2024-03-02T13:03:52;2.67;;;1.37;;
6479;SDS011;71753;48.772;9.148;2024-03-02T13:06:22;1.70;;;1.40;;
6479;SDS011;71753;48.772;9.148;2024-03-02T13:08:49;1.47;;;1.33;;
6479;SDS011;71753;48.772;9.148;2024-03-02T13:11:16;2.23;;;1.50;;
6479;SDS011;71753;48.772;9.148;2024-03-02T13:13:43;1.50;;;1.40;;
6479;SDS011;71753;48.772;9.148;2024-03-02T13:16:09;1.73;;;1.50;;
6479;SDS011;71753;48.772;9.148;2024-03-02T13:18:38;1.70;;;1.33;;
6479;SDS011;71753;48.772;9.148;2024-03-02T13:21:05;1.60;;;1.33;;
6479;SDS011;71753;48.772;9.148;2024-03-02T13:23:33;1.67;;;1.40;;
6479;SDS011;71753;48.772;9.148;2024-03-02T13:25:59;1.30;;;1.20;;
6479;SDS011;71753;48.772;9.148;2024-03-02T13:28:26;2.23;;;1.50;;
6479;SDS011;71753;48.772;9.148;2024-03-02T13:30:53;1.50;;;1.40;;
6479;SDS011;71753;48.772;9.148;2024-03-02T13:33:20;1.60;;;1.33;;
6479;SDS011;71753;48.772;9.148;2024-03-02T13:35:48;1.50;;;1.40;;
6479;SDS011;71753;48.772;9.148;2024-03-02T13:38:16;1.67;;;1.40;;
6479;SDS011;71753;48.772;9.148;2024-03-02T13:40:44;2.00;;;1.60;;
6479;SDS011;71753;48.772;9.148;2024-03-02T13:43:11;2.17;;;1.47;;
6479;SDS011;71753;48.772;9.148;2024-03-02T13:45:38;1.40;;;1.30;;
6479;SDS011;71753;48.772;9.148;2024-03-02T13:48:05;1.63;;;1.30;;
6479;SDS011;71753;48.772;9.148;2024-03-02T13:50:32;1.40;;;1.30;;
6479;SDS011;71753;48.772;9.148;2024-03-02T13:52:58;1.50;;;1.40;;
6479;SDS011;71753;48.772;9.148;2024-03-02T13:55:25;1.70;;;1.50;;
6479;SDS011;71753;48.772;9.148;2024-03-02T13:57:53;2.03;;;1.43;;
6479;SDS011;71753;48.772;9.148;2024-03-02T14:00:20;1.83;;;1.43;;
6479;SDS011;71753;48.772;9.148;2024-03-02T14:02:47;1.87;;;1.50;;
6479;SDS011;71753;48.772;9.148;2024-03-02T14:05:15;1.67;;;1.57;;
6479;SDS011;71753;48.772;9.148;2024-03-02T14:07:42;1.50;;;1.40;;
6479;SDS011;71753;48.772;9.148;2024-03-02T14:10:09;1.43;;;1.27;;
6479;SDS011;71753;48.772;9.148;2024-03-02T14:12:36;1.97;;;1.50;;
6479;SDS011;71753;48.772;9.148;2024-03-02T14:15:04;1.40;;;1.30;;
6479;SDS011;71753;48.772;9.148;2024-03-02T14:17:32;1.67;;;1.40;;
6479;SDS011;71753;48.772;9.148;2024-03-02T14:19:59;1.37;;;1.20;;
6479;SDS011;71753;48.772;9.148;2024-03-02T14:22:25;1.50;;;1.40;;
6479;SDS011;71753;48.772;9.148;2024-03-02T14:24:52;1.47;;;1.30;;
6479;SDS011;71753;48.772;9.148;2024-03-02T14:27:19;2.33;;;1.47;;
6479;SDS011;71753;48.772;9.148;2024-03-02T14:29:46;1.57;;;1.40;;
6479;SDS011;71753;48.772;9.148;2024-03-02T14:32:14;1.50;;;1.40;;
6479;SDS011;71753;48.772;9.148;2024-03-02T14:34:40;1.90;;;1.30;;
6479;SDS011;71753;48.772;9.148;2024-03-02T14:37:07;2.00;;;1.43;;
6479;SDS011;71753;48.772;9.148;2024-03-02T14:39:34;1.90;;;1.70;;
6479;SDS011;71753;48.772;9.148;2024-03-02T14:42:01;1.87;;;1.33;;
6479;SDS011;71753;48.772;9.148;2024-03-02T14:44:28;1.83;;;1.37;;
6479;SDS011;71753;48.772;9.148;2024-03-02T14:46:55;1.53;;;1.40;;
6479;SDS011;71753;48.772;9.148;2024-03-02T14:49:24;1.70;;;1.30;;
6479;SDS011;71753;48.772;9.148;2024-03-02T14:51:51;1.30;;;1.10;;
6479;SDS011;71753;48.772;9.148;2024-03-02T14:54:18;1.33;;;1.20;;
6479;SDS011;71753;48.772;9.148;2024-03-02T14:56:45;1.53;;;1.20;;
6479;SDS011;71753;48.772;9.148;2024-03-02T14:59:11;1.23;;;1.13;;
6479;SDS011;71753;48.772;9.148;2024-03-02T15:01:38;1.40;;;1.20;;
6479;SDS011;71753;48.772;9.148;2024-03-02T15:04:05;1.90;;;1.20;;
6479;SDS011;71753;48.772;9.148;2024-03-02T15:06:33;3.10;;;1.30;;